Terminal Aerodrome Forecast
Issued by NWS

Home | Current Version | Previous Version | Text Only | Print | Product List | Glossary On
Versions: 1 2 3 4 5 6 7 8 9 10 11 12 13 14 15 16 17 18 19 20 21 22 23 24 25 26 27 28 29 30 31 32 33 34 35 36 37 38
000
FTUS45 KSLC 222028 AAC
TAFBCE
TAF AMD
KBCE 222028Z 2220/2318 30018G30KT P6SM VCSH SCT025 BKN035
      TEMPO 2220/2222 4SM -RA BKN030
     FM230300 32020KT P6SM VCSH SCT030 BKN050
     FM231200 33015KT P6SM SCT040 BKN070=

USA.gov is the U.S. government's official web portal to all federal, state and local government web resources and services.